sensor_id;sensor_type;location;lat;lon;timestamp;P1;durP1;ratioP1;P2;durP2;ratioP2
3121;SDS011;1571;52.524;14.104;2023-02-16T00:01:44;18.40;;;12.83;;
3121;SDS011;1571;52.524;14.104;2023-02-16T00:04:16;21.73;;;11.70;;
3121;SDS011;1571;52.524;14.104;2023-02-16T00:06:46;20.70;;;12.80;;
3121;SDS011;1571;52.524;14.104;2023-02-16T00:09:16;21.40;;;13.47;;
3121;SDS011;1571;52.524;14.104;2023-02-16T00:11:44;27.63;;;16.10;;
3121;SDS011;1571;52.524;14.104;2023-02-16T00:14:31;26.83;;;13.70;;
3121;SDS011;1571;52.524;14.104;2023-02-16T00:17:02;26.20;;;14.97;;
3121;SDS011;1571;52.524;14.104;2023-02-16T00:19:32;27.00;;;15.60;;
3121;SDS011;1571;52.524;14.104;2023-02-16T00:22:02;24.60;;;15.53;;
3121;SDS011;1571;52.524;14.104;2023-02-16T00:24:32;21.50;;;14.57;;
3121;SDS011;1571;52.524;14.104;2023-02-16T00:27:01;28.67;;;16.27;;
3121;SDS011;1571;52.524;14.104;2023-02-16T00:29:30;29.53;;;16.00;;
3121;SDS011;1571;52.524;14.104;2023-02-16T00:32:01;20.90;;;13.97;;
3121;SDS011;1571;52.524;14.104;2023-02-16T00:34:32;24.43;;;13.80;;
3121;SDS011;1571;52.524;14.104;2023-02-16T00:37:02;26.30;;;15.07;;
3121;SDS011;1571;52.524;14.104;2023-02-16T00:39:33;23.60;;;14.63;;
3121;SDS011;1571;52.524;14.104;2023-02-16T00:42:03;23.60;;;14.70;;
3121;SDS011;1571;52.524;14.104;2023-02-16T00:44:33;19.03;;;13.60;;
3121;SDS011;1571;52.524;14.104;2023-02-16T00:47:11;25.47;;;15.10;;
3121;SDS011;1571;52.524;14.104;2023-02-16T00:49:46;27.17;;;15.17;;
3121;SDS011;1571;52.524;14.104;2023-02-16T00:52:22;22.00;;;12.90;;
3121;SDS011;1571;52.524;14.104;2023-02-16T00:54:58;25.30;;;13.47;;
3121;SDS011;1571;52.524;14.104;2023-02-16T00:57:27;27.60;;;14.37;;
3121;SDS011;1571;52.524;14.104;2023-02-16T01:00:00;22.50;;;13.17;;
3121;SDS011;1571;52.524;14.104;2023-02-16T01:02:34;21.10;;;14.83;;
3121;SDS011;1571;52.524;14.104;2023-02-16T01:05:03;25.77;;;14.80;;
3121;SDS011;1571;52.524;14.104;2023-02-16T01:07:31;25.27;;;13.90;;
3121;SDS011;1571;52.524;14.104;2023-02-16T01:10:18;27.53;;;16.00;;
3121;SDS011;1571;52.524;14.104;2023-02-16T01:13:05;22.23;;;12.77;;
3121;SDS011;1571;52.524;14.104;2023-02-16T01:15:34;28.23;;;17.60;;
3121;SDS011;1571;52.524;14.104;2023-02-16T01:18:03;25.33;;;14.80;;
3121;SDS011;1571;52.524;14.104;2023-02-16T01:20:32;23.10;;;14.10;;
3121;SDS011;1571;52.524;14.104;2023-02-16T01:23:02;22.63;;;13.53;;
3121;SDS011;1571;52.524;14.104;2023-02-16T01:25:32;25.40;;;14.57;;
3121;SDS011;1571;52.524;14.104;2023-02-16T01:28:02;23.07;;;14.97;;
3121;SDS011;1571;52.524;14.104;2023-02-16T01:30:30;21.87;;;13.50;;
3121;SDS011;1571;52.524;14.104;2023-02-16T01:32:59;24.10;;;15.10;;
3121;SDS011;1571;52.524;14.104;2023-02-16T01:35:28;21.70;;;14.70;;
3121;SDS011;1571;52.524;14.104;2023-02-16T01:38:00;22.23;;;14.23;;
3121;SDS011;1571;52.524;14.104;2023-02-16T01:40:30;29.53;;;15.60;;
3121;SDS011;1571;52.524;14.104;2023-02-16T01:43:09;25.47;;;16.00;;
3121;SDS011;1571;52.524;14.104;2023-02-16T01:45:47;30.20;;;14.10;;
3121;SDS011;1571;52.524;14.104;2023-02-16T01:48:23;26.00;;;15.60;;
3121;SDS011;1571;52.524;14.104;2023-02-16T01:50:55;32.20;;;18.87;;
3121;SDS011;1571;52.524;14.104;2023-02-16T01:53:30;26.77;;;18.13;;
3121;SDS011;1571;52.524;14.104;2023-02-16T01:56:02;32.40;;;16.53;;
3121;SDS011;1571;52.524;14.104;2023-02-16T01:58:34;28.10;;;15.77;;
3121;SDS011;1571;52.524;14.104;2023-02-16T02:01:25;29.00;;;16.83;;
3121;SDS011;1571;52.524;14.104;2023-02-16T02:04:08;26.23;;;15.77;;
3121;SDS011;1571;52.524;14.104;2023-02-16T02:06:56;28.00;;;15.93;;
3121;SDS011;1571;52.524;14.104;2023-02-16T02:09:26;27.67;;;14.47;;
3121;SDS011;1571;52.524;14.104;2023-02-16T02:12:05;24.17;;;15.00;;
3121;SDS011;1571;52.524;14.104;2023-02-16T02:14:41;26.50;;;16.07;;
3121;SDS011;1571;52.524;14.104;2023-02-16T02:17:11;28.80;;;16.00;;
3121;SDS011;1571;52.524;14.104;2023-02-16T02:19:46;30.80;;;15.33;;
3121;SDS011;1571;52.524;14.104;2023-02-16T02:22:25;26.50;;;15.80;;
3121;SDS011;1571;52.524;14.104;2023-02-16T02:28:55;27.43;;;17.23;;
3121;SDS011;1571;52.524;14.104;2023-02-16T02:31:36;33.83;;;18.83;;
3121;SDS011;1571;52.524;14.104;2023-02-16T02:34:19;43.50;;;25.07;;
3121;SDS011;1571;52.524;14.104;2023-02-16T02:37:02;53.83;;;28.90;;
3121;SDS011;1571;52.524;14.104;2023-02-16T02:39:39;38.63;;;25.20;;
3121;SDS011;1571;52.524;14.104;2023-02-16T02:42:17;74.70;;;37.87;;
3121;SDS011;1571;52.524;14.104;2023-02-16T02:44:56;61.83;;;34.60;;
3121;SDS011;1571;52.524;14.104;2023-02-16T02:47:35;43.80;;;22.37;;
3121;SDS011;1571;52.524;14.104;2023-02-16T02:53:03;24.97;;;15.20;;
3121;SDS011;1571;52.524;14.104;2023-02-16T02:55:34;25.13;;;15.90;;
3121;SDS011;1571;52.524;14.104;2023-02-16T02:58:24;23.83;;;15.10;;
3121;SDS011;1571;52.524;14.104;2023-02-16T03:01:13;23.30;;;13.40;;
3121;SDS011;1571;52.524;14.104;2023-02-16T03:03:44;19.33;;;13.67;;
3121;SDS011;1571;52.524;14.104;2023-02-16T03:06:16;22.80;;;14.10;;
3121;SDS011;1571;52.524;14.104;2023-02-16T03:08:52;24.57;;;14.37;;
3121;SDS011;1571;52.524;14.104;2023-02-16T03:11:23;22.03;;;13.70;;
3121;SDS011;1571;52.524;14.104;2023-02-16T03:14:14;21.77;;;13.87;;
3121;SDS011;1571;52.524;14.104;2023-02-16T03:16:47;26.63;;;15.20;;
3121;SDS011;1571;52.524;14.104;2023-02-16T03:19:36;24.57;;;14.57;;
3121;SDS011;1571;52.524;14.104;2023-02-16T03:22:23;22.50;;;14.97;;
3121;SDS011;1571;52.524;14.104;2023-02-16T03:25:09;22.03;;;13.83;;
3121;SDS011;1571;52.524;14.104;2023-02-16T03:27:57;23.63;;;12.57;;
3121;SDS011;1571;52.524;14.104;2023-02-16T03:30:44;23.27;;;13.20;;
3121;SDS011;1571;52.524;14.104;2023-02-16T03:33:16;18.90;;;11.83;;
3121;SDS011;1571;52.524;14.104;2023-02-16T03:35:44;18.17;;;12.07;;
3121;SDS011;1571;52.524;14.104;2023-02-16T03:38:13;19.93;;;13.57;;
3121;SDS011;1571;52.524;14.104;2023-02-16T03:40:42;24.93;;;14.43;;
3121;SDS011;1571;52.524;14.104;2023-02-16T03:43:12;20.20;;;13.50;;
3121;SDS011;1571;52.524;14.104;2023-02-16T03:45:40;24.00;;;12.77;;
3121;SDS011;1571;52.524;14.104;2023-02-16T03:48:10;20.67;;;13.80;;
3121;SDS011;1571;52.524;14.104;2023-02-16T03:50:40;23.93;;;14.13;;
3121;SDS011;1571;52.524;14.104;2023-02-16T03:53:08;19.90;;;12.90;;
3121;SDS011;1571;52.524;14.104;2023-02-16T03:55:37;22.73;;;15.23;;
3121;SDS011;1571;52.524;14.104;2023-02-16T03:58:08;21.23;;;13.10;;
3121;SDS011;1571;52.524;14.104;2023-02-16T04:00:38;21.67;;;13.27;;
3121;SDS011;1571;52.524;14.104;2023-02-16T04:03:07;22.07;;;13.40;;
3121;SDS011;1571;52.524;14.104;2023-02-16T04:05:36;28.77;;;14.10;;
3121;SDS011;1571;52.524;14.104;2023-02-16T04:08:06;21.17;;;13.93;;
3121;SDS011;1571;52.524;14.104;2023-02-16T04:10:36;20.43;;;12.43;;
3121;SDS011;1571;52.524;14.104;2023-02-16T04:13:05;22.27;;;13.10;;
3121;SDS011;1571;52.524;14.104;2023-02-16T04:15:33;21.50;;;13.43;;
3121;SDS011;1571;52.524;14.104;2023-02-16T04:18:02;24.60;;;14.30;;
3121;SDS011;1571;52.524;14.104;2023-02-16T04:20:30;22.67;;;13.73;;
3121;SDS011;1571;52.524;14.104;2023-02-16T04:23:00;23.93;;;14.20;;
3121;SDS011;1571;52.524;14.104;2023-02-16T04:25:31;20.07;;;13.87;;
3121;SDS011;1571;52.524;14.104;2023-02-16T04:27:59;20.20;;;13.37;;
3121;SDS011;1571;52.524;14.104;2023-02-16T04:30:28;23.80;;;12.43;;
3121;SDS011;1571;52.524;14.104;2023-02-16T04:32:58;20.13;;;13.30;;
3121;SDS011;1571;52.524;14.104;2023-02-16T04:35:26;22.30;;;12.73;;
3121;SDS011;1571;52.524;14.104;2023-02-16T04:37:55;21.80;;;13.60;;
3121;SDS011;1571;52.524;14.104;2023-02-16T04:40:23;19.57;;;11.30;;
3121;SDS011;1571;52.524;14.104;2023-02-16T04:42:52;26.77;;;13.00;;
3121;SDS011;1571;52.524;14.104;2023-02-16T04:45:20;20.90;;;14.23;;
3121;SDS011;1571;52.524;14.104;2023-02-16T04:47:49;20.00;;;14.07;;
3121;SDS011;1571;52.524;14.104;2023-02-16T04:50:17;25.37;;;15.23;;
3121;SDS011;1571;52.524;14.104;2023-02-16T04:52:46;19.23;;;11.70;;
3121;SDS011;1571;52.524;14.104;2023-02-16T04:55:14;24.17;;;15.00;;
3121;SDS011;1571;52.524;14.104;2023-02-16T04:57:42;24.20;;;16.40;;
3121;SDS011;1571;52.524;14.104;2023-02-16T05:00:12;20.87;;;14.73;;
3121;SDS011;1571;52.524;14.104;2023-02-16T05:02:41;25.80;;;16.63;;
3121;SDS011;1571;52.524;14.104;2023-02-16T05:05:09;23.27;;;15.57;;
3121;SDS011;1571;52.524;14.104;2023-02-16T05:07:37;29.00;;;16.90;;
3121;SDS011;1571;52.524;14.104;2023-02-16T05:10:05;28.40;;;18.03;;
3121;SDS011;1571;52.524;14.104;2023-02-16T05:12:34;26.33;;;17.03;;
3121;SDS011;1571;52.524;14.104;2023-02-16T05:15:21;25.73;;;15.57;;
3121;SDS011;1571;52.524;14.104;2023-02-16T05:17:50;24.30;;;15.73;;
3121;SDS011;1571;52.524;14.104;2023-02-16T05:20:18;23.40;;;15.43;;
3121;SDS011;1571;52.524;14.104;2023-02-16T05:23:06;28.17;;;15.10;;
3121;SDS011;1571;52.524;14.104;2023-02-16T05:25:35;26.73;;;14.60;;
3121;SDS011;1571;52.524;14.104;2023-02-16T05:28:03;24.87;;;16.53;;
3121;SDS011;1571;52.524;14.104;2023-02-16T05:30:33;30.10;;;17.60;;
3121;SDS011;1571;52.524;14.104;2023-02-16T05:33:01;30.13;;;16.13;;
3121;SDS011;1571;52.524;14.104;2023-02-16T05:35:30;23.07;;;15.90;;
3121;SDS011;1571;52.524;14.104;2023-02-16T05:38:00;28.40;;;16.73;;
3121;SDS011;1571;52.524;14.104;2023-02-16T05:40:28;27.97;;;18.07;;
3121;SDS011;1571;52.524;14.104;2023-02-16T05:42:56;29.30;;;15.70;;
3121;SDS011;1571;52.524;14.104;2023-02-16T05:45:24;30.50;;;18.83;;
3121;SDS011;1571;52.524;14.104;2023-02-16T05:47:54;33.93;;;18.43;;
3121;SDS011;1571;52.524;14.104;2023-02-16T05:50:22;29.80;;;18.53;;
3121;SDS011;1571;52.524;14.104;2023-02-16T05:52:50;31.87;;;17.77;;
3121;SDS011;1571;52.524;14.104;2023-02-16T05:55:18;26.00;;;17.00;;
3121;SDS011;1571;52.524;14.104;2023-02-16T05:57:47;26.30;;;16.97;;
3121;SDS011;1571;52.524;14.104;2023-02-16T06:00:15;25.03;;;16.50;;
3121;SDS011;1571;52.524;14.104;2023-02-16T06:02:44;30.50;;;19.37;;
3121;SDS011;1571;52.524;14.104;2023-02-16T06:05:14;25.30;;;17.37;;
3121;SDS011;1571;52.524;14.104;2023-02-16T06:07:42;33.73;;;17.70;;
3121;SDS011;1571;52.524;14.104;2023-02-16T06:10:11;32.40;;;18.30;;
3121;SDS011;1571;52.524;14.104;2023-02-16T06:12:39;31.63;;;19.13;;
3121;SDS011;1571;52.524;14.104;2023-02-16T06:15:10;28.70;;;18.27;;
3121;SDS011;1571;52.524;14.104;2023-02-16T06:17:39;26.70;;;17.40;;
3121;SDS011;1571;52.524;14.104;2023-02-16T06:20:10;29.20;;;17.47;;
3121;SDS011;1571;52.524;14.104;2023-02-16T06:22:40;29.60;;;19.83;;
3121;SDS011;1571;52.524;14.104;2023-02-16T06:25:08;27.63;;;17.47;;
3121;SDS011;1571;52.524;14.104;2023-02-16T06:27:36;27.03;;;19.33;;
3121;SDS011;1571;52.524;14.104;2023-02-16T06:30:05;30.20;;;19.47;;
3121;SDS011;1571;52.524;14.104;2023-02-16T06:32:35;31.33;;;18.63;;
3121;SDS011;1571;52.524;14.104;2023-02-16T06:35:03;30.17;;;18.33;;
3121;SDS011;1571;52.524;14.104;2023-02-16T06:37:31;31.40;;;18.10;;
3121;SDS011;1571;52.524;14.104;2023-02-16T06:40:01;30.07;;;19.50;;
3121;SDS011;1571;52.524;14.104;2023-02-16T06:42:29;30.53;;;17.47;;
3121;SDS011;1571;52.524;14.104;2023-02-16T06:44:57;27.17;;;19.87;;
3121;SDS011;1571;52.524;14.104;2023-02-16T06:47:26;28.20;;;17.13;;
3121;SDS011;1571;52.524;14.104;2023-02-16T06:49:54;28.20;;;19.23;;
3121;SDS011;1571;52.524;14.104;2023-02-16T06:52:23;26.90;;;19.10;;
3121;SDS011;1571;52.524;14.104;2023-02-16T06:54:51;25.60;;;18.33;;
3121;SDS011;1571;52.524;14.104;2023-02-16T06:57:20;30.40;;;18.03;;
3121;SDS011;1571;52.524;14.104;2023-02-16T06:59:49;28.70;;;19.00;;
3121;SDS011;1571;52.524;14.104;2023-02-16T07:02:17;29.60;;;19.17;;
3121;SDS011;1571;52.524;14.104;2023-02-16T07:04:45;32.33;;;18.57;;
3121;SDS011;1571;52.524;14.104;2023-02-16T07:07:13;28.33;;;18.50;;
3121;SDS011;1571;52.524;14.104;2023-02-16T07:09:41;28.53;;;17.27;;
3121;SDS011;1571;52.524;14.104;2023-02-16T07:12:10;26.20;;;17.10;;
3121;SDS011;1571;52.524;14.104;2023-02-16T07:14:40;28.47;;;17.27;;
3121;SDS011;1571;52.524;14.104;2023-02-16T07:17:10;23.90;;;16.20;;
3121;SDS011;1571;52.524;14.104;2023-02-16T07:19:38;27.40;;;16.73;;
3121;SDS011;1571;52.524;14.104;2023-02-16T07:22:06;25.70;;;16.73;;
3121;SDS011;1571;52.524;14.104;2023-02-16T07:24:34;24.70;;;16.83;;
3121;SDS011;1571;52.524;14.104;2023-02-16T07:27:03;27.07;;;17.80;;
3121;SDS011;1571;52.524;14.104;2023-02-16T07:29:31;25.50;;;15.70;;
3121;SDS011;1571;52.524;14.104;2023-02-16T07:32:01;26.87;;;16.00;;
3121;SDS011;1571;52.524;14.104;2023-02-16T07:34:29;23.23;;;16.80;;
3121;SDS011;1571;52.524;14.104;2023-02-16T07:36:58;24.67;;;17.60;;
3121;SDS011;1571;52.524;14.104;2023-02-16T07:39:26;25.87;;;16.93;;
3121;SDS011;1571;52.524;14.104;2023-02-16T07:41:56;30.23;;;17.93;;
3121;SDS011;1571;52.524;14.104;2023-02-16T07:44:25;24.67;;;16.27;;
3121;SDS011;1571;52.524;14.104;2023-02-16T07:46:53;26.87;;;16.60;;
3121;SDS011;1571;52.524;14.104;2023-02-16T07:49:23;27.00;;;16.90;;
3121;SDS011;1571;52.524;14.104;2023-02-16T07:51:52;28.33;;;17.10;;
3121;SDS011;1571;52.524;14.104;2023-02-16T07:54:20;26.17;;;15.27;;
3121;SDS011;1571;52.524;14.104;2023-02-16T07:56:48;23.70;;;16.13;;
3121;SDS011;1571;52.524;14.104;2023-02-16T07:59:17;27.37;;;16.30;;
3121;SDS011;1571;52.524;14.104;2023-02-16T08:01:45;25.27;;;17.43;;
3121;SDS011;1571;52.524;14.104;2023-02-16T08:04:13;26.00;;;17.00;;
3121;SDS011;1571;52.524;14.104;2023-02-16T08:06:43;26.57;;;17.80;;
3121;SDS011;1571;52.524;14.104;2023-02-16T08:09:12;24.77;;;17.00;;
3121;SDS011;1571;52.524;14.104;2023-02-16T08:11:41;25.73;;;17.97;;
3121;SDS011;1571;52.524;14.104;2023-02-16T08:14:09;26.50;;;17.57;;
3121;SDS011;1571;52.524;14.104;2023-02-16T08:16:38;25.90;;;16.80;;
3121;SDS011;1571;52.524;14.104;2023-02-16T08:19:06;25.30;;;18.10;;
3121;SDS011;1571;52.524;14.104;2023-02-16T08:21:36;30.53;;;18.40;;
3121;SDS011;1571;52.524;14.104;2023-02-16T08:24:07;23.03;;;17.67;;
3121;SDS011;1571;52.524;14.104;2023-02-16T08:26:35;27.70;;;17.33;;
3121;SDS011;1571;52.524;14.104;2023-02-16T08:29:06;28.60;;;16.67;;
3121;SDS011;1571;52.524;14.104;2023-02-16T08:31:36;25.60;;;17.27;;
3121;SDS011;1571;52.524;14.104;2023-02-16T08:34:04;24.93;;;18.00;;
3121;SDS011;1571;52.524;14.104;2023-02-16T08:36:34;26.77;;;19.00;;
3121;SDS011;1571;52.524;14.104;2023-02-16T08:39:05;25.43;;;16.43;;
3121;SDS011;1571;52.524;14.104;2023-02-16T08:41:42;25.83;;;17.47;;
3121;SDS011;1571;52.524;14.104;2023-02-16T08:44:12;23.37;;;17.23;;
3121;SDS011;1571;52.524;14.104;2023-02-16T08:46:42;25.07;;;16.90;;
3121;SDS011;1571;52.524;14.104;2023-02-16T08:49:12;25.07;;;18.00;;
3121;SDS011;1571;52.524;14.104;2023-02-16T08:51:43;27.57;;;19.23;;
3121;SDS011;1571;52.524;14.104;2023-02-16T08:54:15;25.80;;;17.70;;
3121;SDS011;1571;52.524;14.104;2023-02-16T08:56:45;27.83;;;18.40;;
3121;SDS011;1571;52.524;14.104;2023-02-16T08:59:14;28.70;;;18.30;;
3121;SDS011;1571;52.524;14.104;2023-02-16T09:01:43;26.70;;;18.87;;
3121;SDS011;1571;52.524;14.104;2023-02-16T09:04:12;26.03;;;18.10;;
3121;SDS011;1571;52.524;14.104;2023-02-16T09:06:43;25.87;;;17.30;;
3121;SDS011;1571;52.524;14.104;2023-02-16T09:09:12;21.60;;;17.43;;
3121;SDS011;1571;52.524;14.104;2023-02-16T09:11:42;22.93;;;18.23;;
3121;SDS011;1571;52.524;14.104;2023-02-16T09:14:11;28.87;;;20.27;;
3121;SDS011;1571;52.524;14.104;2023-02-16T09:16:40;26.93;;;19.57;;
3121;SDS011;1571;52.524;14.104;2023-02-16T09:19:12;29.73;;;19.10;;
3121;SDS011;1571;52.524;14.104;2023-02-16T09:21:41;28.50;;;19.00;;
3121;SDS011;1571;52.524;14.104;2023-02-16T09:24:10;28.47;;;18.90;;
3121;SDS011;1571;52.524;14.104;2023-02-16T09:26:39;28.77;;;21.50;;
3121;SDS011;1571;52.524;14.104;2023-02-16T09:29:10;31.50;;;21.47;;
3121;SDS011;1571;52.524;14.104;2023-02-16T09:31:40;28.67;;;21.63;;
3121;SDS011;1571;52.524;14.104;2023-02-16T09:34:13;34.50;;;22.90;;
3121;SDS011;1571;52.524;14.104;2023-02-16T09:36:43;34.47;;;21.50;;
3121;SDS011;1571;52.524;14.104;2023-02-16T09:39:13;31.70;;;21.30;;
3121;SDS011;1571;52.524;14.104;2023-02-16T09:44:43;29.40;;;20.30;;
3121;SDS011;1571;52.524;14.104;2023-02-16T09:47:20;28.33;;;22.10;;
3121;SDS011;1571;52.524;14.104;2023-02-16T09:49:51;33.03;;;21.87;;
3121;SDS011;1571;52.524;14.104;2023-02-16T09:52:25;27.93;;;21.20;;
3121;SDS011;1571;52.524;14.104;2023-02-16T09:55:05;33.63;;;21.00;;
3121;SDS011;1571;52.524;14.104;2023-02-16T09:57:39;30.90;;;21.20;;
3121;SDS011;1571;52.524;14.104;2023-02-16T10:00:20;30.97;;;21.70;;
3121;SDS011;1571;52.524;14.104;2023-02-16T10:02:56;27.03;;;21.43;;
3121;SDS011;1571;52.524;14.104;2023-02-16T10:05:40;28.63;;;20.30;;
3121;SDS011;1571;52.524;14.104;2023-02-16T10:08:13;32.37;;;21.53;;
3121;SDS011;1571;52.524;14.104;2023-02-16T10:10:48;29.20;;;20.10;;
3121;SDS011;1571;52.524;14.104;2023-02-16T10:13:21;28.17;;;20.97;;
3121;SDS011;1571;52.524;14.104;2023-02-16T10:15:56;28.17;;;20.03;;
3121;SDS011;1571;52.524;14.104;2023-02-16T10:18:28;26.97;;;19.50;;
3121;SDS011;1571;52.524;14.104;2023-02-16T10:21:01;31.30;;;22.63;;
3121;SDS011;1571;52.524;14.104;2023-02-16T10:23:39;32.90;;;22.83;;
3121;SDS011;1571;52.524;14.104;2023-02-16T10:26:15;28.50;;;20.10;;
3121;SDS011;1571;52.524;14.104;2023-02-16T10:28:49;29.87;;;21.33;;
3121;SDS011;1571;52.524;14.104;2023-02-16T10:31:27;32.23;;;22.43;;
3121;SDS011;1571;52.524;14.104;2023-02-16T10:34:08;29.20;;;20.87;;
3121;SDS011;1571;52.524;14.104;2023-02-16T10:39:45;37.47;;;21.63;;
3121;SDS011;1571;52.524;14.104;2023-02-16T10:42:21;29.70;;;20.10;;
3121;SDS011;1571;52.524;14.104;2023-02-16T10:44:57;27.47;;;19.83;;
3121;SDS011;1571;52.524;14.104;2023-02-16T10:47:30;26.70;;;21.30;;
3121;SDS011;1571;52.524;14.104;2023-02-16T10:50:02;27.80;;;21.10;;
3121;SDS011;1571;52.524;14.104;2023-02-16T10:52:32;29.93;;;20.63;;
3121;SDS011;1571;52.524;14.104;2023-02-16T10:55:05;30.37;;;20.67;;
3121;SDS011;1571;52.524;14.104;2023-02-16T10:57:34;31.97;;;21.27;;
3121;SDS011;1571;52.524;14.104;2023-02-16T11:00:04;29.63;;;22.87;;
3121;SDS011;1571;52.524;14.104;2023-02-16T11:02:39;31.63;;;21.03;;
3121;SDS011;1571;52.524;14.104;2023-02-16T11:05:27;25.97;;;20.83;;
3121;SDS011;1571;52.524;14.104;2023-02-16T11:07:58;26.53;;;19.03;;
3121;SDS011;1571;52.524;14.104;2023-02-16T11:10:38;29.23;;;20.57;;
3121;SDS011;1571;52.524;14.104;2023-02-16T11:13:23;30.93;;;19.93;;
3121;SDS011;1571;52.524;14.104;2023-02-16T11:15:55;26.20;;;20.30;;
3121;SDS011;1571;52.524;14.104;2023-02-16T11:18:33;29.93;;;20.87;;
3121;SDS011;1571;52.524;14.104;2023-02-16T11:21:04;30.83;;;22.33;;
3121;SDS011;1571;52.524;14.104;2023-02-16T11:23:34;32.03;;;22.40;;
3121;SDS011;1571;52.524;14.104;2023-02-16T11:26:04;29.80;;;21.00;;
3121;SDS011;1571;52.524;14.104;2023-02-16T11:28:35;30.00;;;21.57;;
3121;SDS011;1571;52.524;14.104;2023-02-16T11:31:10;38.57;;;22.70;;
3121;SDS011;1571;52.524;14.104;2023-02-16T11:33:42;35.87;;;25.10;;
3121;SDS011;1571;52.524;14.104;2023-02-16T11:36:23;35.80;;;22.20;;
3121;SDS011;1571;52.524;14.104;2023-02-16T11:38:57;28.00;;;21.60;;
3121;SDS011;1571;52.524;14.104;2023-02-16T11:41:28;34.73;;;22.23;;
3121;SDS011;1571;52.524;14.104;2023-02-16T11:43:59;33.17;;;22.80;;
3121;SDS011;1571;52.524;14.104;2023-02-16T11:46:36;30.67;;;20.67;;
3121;SDS011;1571;52.524;14.104;2023-02-16T11:49:28;30.60;;;23.30;;
3121;SDS011;1571;52.524;14.104;2023-02-16T11:51:58;35.57;;;23.47;;
3121;SDS011;1571;52.524;14.104;2023-02-16T11:54:27;29.67;;;21.13;;
3121;SDS011;1571;52.524;14.104;2023-02-16T11:56:59;32.53;;;21.60;;
3121;SDS011;1571;52.524;14.104;2023-02-16T11:59:31;27.47;;;21.50;;
3121;SDS011;1571;52.524;14.104;2023-02-16T12:08:12;29.93;;;19.77;;
3121;SDS011;1571;52.524;14.104;2023-02-16T12:11:04;30.60;;;21.57;;
3121;SDS011;1571;52.524;14.104;2023-02-16T12:13:44;27.40;;;21.43;;
3121;SDS011;1571;52.524;14.104;2023-02-16T12:16:23;33.77;;;21.10;;
3121;SDS011;1571;52.524;14.104;2023-02-16T12:19:05;28.20;;;21.53;;
3121;SDS011;1571;52.524;14.104;2023-02-16T12:21:47;28.40;;;21.67;;
3121;SDS011;1571;52.524;14.104;2023-02-16T12:24:21;25.60;;;20.63;;
3121;SDS011;1571;52.524;14.104;2023-02-16T12:27:00;32.53;;;21.63;;
3121;SDS011;1571;52.524;14.104;2023-02-16T12:29:36;29.10;;;23.00;;
3121;SDS011;1571;52.524;14.104;2023-02-16T12:32:17;30.37;;;20.90;;
3121;SDS011;1571;52.524;14.104;2023-02-16T12:35:01;27.90;;;20.30;;
3121;SDS011;1571;52.524;14.104;2023-02-16T12:37:41;28.23;;;20.17;;
3121;SDS011;1571;52.524;14.104;2023-02-16T12:40:16;24.40;;;19.20;;
3121;SDS011;1571;52.524;14.104;2023-02-16T12:43:00;24.27;;;17.70;;
3121;SDS011;1571;52.524;14.104;2023-02-16T12:45:33;28.43;;;20.10;;
3121;SDS011;1571;52.524;14.104;2023-02-16T12:48:05;23.13;;;18.50;;
3121;SDS011;1571;52.524;14.104;2023-02-16T12:50:45;30.43;;;20.17;;
3121;SDS011;1571;52.524;14.104;2023-02-16T12:53:20;27.47;;;20.50;;
3121;SDS011;1571;52.524;14.104;2023-02-16T12:55:54;32.47;;;20.70;;
3121;SDS011;1571;52.524;14.104;2023-02-16T12:58:27;25.80;;;18.60;;
3121;SDS011;1571;52.524;14.104;2023-02-16T13:00:58;25.30;;;20.23;;
3121;SDS011;1571;52.524;14.104;2023-02-16T13:03:32;26.83;;;19.50;;
3121;SDS011;1571;52.524;14.104;2023-02-16T13:06:07;27.30;;;20.27;;
3121;SDS011;1571;52.524;14.104;2023-02-16T13:08:47;27.27;;;20.27;;
3121;SDS011;1571;52.524;14.104;2023-02-16T13:11:22;30.03;;;19.70;;
3121;SDS011;1571;52.524;14.104;2023-02-16T13:13:56;23.07;;;18.33;;
3121;SDS011;1571;52.524;14.104;2023-02-16T13:16:31;28.50;;;20.73;;
3121;SDS011;1571;52.524;14.104;2023-02-16T13:19:08;24.07;;;17.03;;
3121;SDS011;1571;52.524;14.104;2023-02-16T13:21:45;22.83;;;16.67;;
3121;SDS011;1571;52.524;14.104;2023-02-16T13:24:33;25.57;;;18.70;;
3121;SDS011;1571;52.524;14.104;2023-02-16T13:27:15;25.10;;;18.60;;
3121;SDS011;1571;52.524;14.104;2023-02-16T13:30:02;25.53;;;17.70;;
3121;SDS011;1571;52.524;14.104;2023-02-16T13:32:58;21.50;;;17.40;;
3121;SDS011;1571;52.524;14.104;2023-02-16T13:35:47;29.30;;;17.60;;
3121;SDS011;1571;52.524;14.104;2023-02-16T13:38:41;21.93;;;17.50;;
3121;SDS011;1571;52.524;14.104;2023-02-16T13:41:38;32.77;;;18.03;;
3121;SDS011;1571;52.524;14.104;2023-02-16T13:44:21;26.57;;;18.77;;
3121;SDS011;1571;52.524;14.104;2023-02-16T13:46:52;24.73;;;20.30;;
3121;SDS011;1571;52.524;14.104;2023-02-16T13:49:29;37.57;;;24.30;;
3121;SDS011;1571;52.524;14.104;2023-02-16T13:52:02;28.10;;;18.27;;
3121;SDS011;1571;52.524;14.104;2023-02-16T13:54:31;24.40;;;17.27;;
3121;SDS011;1571;52.524;14.104;2023-02-16T13:57:03;21.80;;;15.20;;
3121;SDS011;1571;52.524;14.104;2023-02-16T14:02:49;24.87;;;17.93;;
3121;SDS011;1571;52.524;14.104;2023-02-16T14:05:24;27.33;;;17.20;;
3121;SDS011;1571;52.524;14.104;2023-02-16T14:08:08;26.40;;;18.47;;
3121;SDS011;1571;52.524;14.104;2023-02-16T14:11:06;27.37;;;20.33;;
3121;SDS011;1571;52.524;14.104;2023-02-16T14:13:47;24.33;;;17.70;;
3121;SDS011;1571;52.524;14.104;2023-02-16T14:16:27;24.03;;;18.00;;
3121;SDS011;1571;52.524;14.104;2023-02-16T14:18:59;21.47;;;15.40;;
3121;SDS011;1571;52.524;14.104;2023-02-16T14:21:31;27.63;;;21.47;;
3121;SDS011;1571;52.524;14.104;2023-02-16T14:24:04;24.50;;;18.40;;
3121;SDS011;1571;52.524;14.104;2023-02-16T14:26:49;25.23;;;18.03;;
3121;SDS011;1571;52.524;14.104;2023-02-16T14:29:23;21.37;;;15.60;;
3121;SDS011;1571;52.524;14.104;2023-02-16T14:31:56;21.20;;;16.47;;
3121;SDS011;1571;52.524;14.104;2023-02-16T14:34:28;20.70;;;14.97;;
3121;SDS011;1571;52.524;14.104;2023-02-16T14:39:55;34.33;;;15.70;;
3121;SDS011;1571;52.524;14.104;2023-02-16T14:42:54;19.13;;;13.90;;
3121;SDS011;1571;52.524;14.104;2023-02-16T14:45:51;27.83;;;16.57;;
3121;SDS011;1571;52.524;14.104;2023-02-16T14:48:29;25.70;;;17.47;;
3121;SDS011;1571;52.524;14.104;2023-02-16T14:54:23;22.73;;;17.13;;
3121;SDS011;1571;52.524;14.104;2023-02-16T14:57:16;25.33;;;19.60;;
3121;SDS011;1571;52.524;14.104;2023-02-16T14:59:49;23.23;;;15.97;;
3121;SDS011;1571;52.524;14.104;2023-02-16T15:02:25;28.63;;;16.47;;
3121;SDS011;1571;52.524;14.104;2023-02-16T15:04:55;23.20;;;15.73;;
3121;SDS011;1571;52.524;14.104;2023-02-16T15:07:25;24.00;;;16.67;;
3121;SDS011;1571;52.524;14.104;2023-02-16T15:09:55;26.27;;;16.00;;
3121;SDS011;1571;52.524;14.104;2023-02-16T15:12:36;18.70;;;15.93;;
3121;SDS011;1571;52.524;14.104;2023-02-16T15:15:06;24.10;;;15.57;;
3121;SDS011;1571;52.524;14.104;2023-02-16T15:17:38;29.63;;;18.17;;
3121;SDS011;1571;52.524;14.104;2023-02-16T15:20:15;28.53;;;19.30;;
3121;SDS011;1571;52.524;14.104;2023-02-16T15:22:48;25.10;;;15.83;;
3121;SDS011;1571;52.524;14.104;2023-02-16T15:25:19;28.93;;;15.97;;
3121;SDS011;1571;52.524;14.104;2023-02-16T15:27:51;24.10;;;14.83;;
3121;SDS011;1571;52.524;14.104;2023-02-16T15:30:27;23.80;;;16.30;;
3121;SDS011;1571;52.524;14.104;2023-02-16T15:32:59;27.53;;;15.10;;
3121;SDS011;1571;52.524;14.104;2023-02-16T15:35:31;26.10;;;17.77;;
3121;SDS011;1571;52.524;14.104;2023-02-16T15:38:04;26.17;;;18.67;;